createdAt,value
2023-05-15T00:00:06.748Z,13.90
2023-05-15T00:03:00.215Z,13.80
2023-05-15T00:05:28.328Z,13.90
2023-05-15T00:07:56.465Z,13.10
2023-05-15T00:10:24.420Z,14.20
2023-05-15T00:12:52.341Z,13.80
2023-05-15T00:15:20.183Z,14.10
2023-05-15T00:17:48.132Z,13.20
2023-05-15T00:20:16.220Z,13.40
2023-05-15T00:22:44.425Z,12.70
2023-05-15T00:25:12.365Z,13.10
2023-05-15T00:27:40.300Z,13.10
2023-05-15T00:30:08.913Z,12.60
2023-05-15T00:32:36.909Z,12.80
2023-05-15T00:35:05.402Z,12.00
2023-05-15T00:37:33.360Z,12.50
2023-05-15T00:40:01.310Z,12.30
2023-05-15T00:42:29.895Z,12.30
2023-05-15T00:45:00.740Z,12.60
2023-05-15T00:47:29.337Z,11.60
2023-05-15T00:49:58.055Z,11.20
2023-05-15T00:52:26.698Z,11.00
2023-05-15T00:54:54.772Z,10.30
2023-05-15T00:57:24.264Z,11.30
2023-05-15T00:59:52.925Z,10.30
2023-05-15T01:02:21.214Z,10.60
2023-05-15T01:04:50.002Z,11.20
2023-05-15T01:07:18.174Z,11.60
2023-05-15T01:09:49.459Z,12.80
2023-05-15T01:12:18.649Z,12.20
2023-05-15T01:14:46.612Z,11.90
2023-05-15T01:17:14.574Z,12.50
2023-05-15T01:19:43.381Z,13.20
2023-05-15T01:22:41.762Z,12.70
2023-05-15T01:25:28.229Z,13.30
2023-05-15T01:28:03.454Z,13.50
2023-05-15T01:30:36.220Z,14.10
2023-05-15T01:33:24.702Z,14.80
2023-05-15T01:36:10.967Z,14.90
2023-05-15T01:38:48.589Z,14.60
2023-05-15T01:41:39.593Z,15.00
2023-05-15T01:44:11.634Z,15.30
2023-05-15T01:46:45.432Z,14.70
2023-05-15T01:49:15.995Z,14.60
2023-05-15T01:51:44.646Z,14.60
2023-05-15T01:54:14.989Z,14.40
2023-05-15T01:56:46.952Z,14.40
2023-05-15T01:59:16.644Z,14.90
2023-05-15T02:01:46.138Z,15.20
2023-05-15T02:04:15.374Z,15.50
2023-05-15T02:06:44.424Z,15.90
2023-05-15T02:09:13.022Z,17.40
2023-05-15T02:11:42.113Z,17.70
2023-05-15T02:14:12.616Z,17.90
2023-05-15T02:16:41.203Z,19.00
2023-05-15T02:19:09.271Z,18.80
2023-05-15T02:21:37.200Z,18.20
2023-05-15T02:24:05.414Z,20.50
2023-05-15T02:26:47.753Z,19.50
2023-05-15T02:29:42.188Z,19.60
2023-05-15T02:35:13.709Z,18.50
2023-05-15T02:37:43.084Z,18.50
2023-05-15T02:40:13.554Z,20.10
2023-05-15T02:42:43.977Z,19.30
2023-05-15T02:45:12.999Z,20.90
2023-05-15T02:47:41.138Z,19.60
2023-05-15T02:50:10.153Z,19.80
2023-05-15T02:52:38.092Z,20.10
2023-05-15T02:55:06.634Z,19.70
2023-05-15T02:57:34.497Z,21.40
2023-05-15T03:00:02.436Z,21.10
2023-05-15T03:02:30.489Z,21.90
2023-05-15T03:04:58.429Z,22.10
2023-05-15T03:07:27.029Z,21.60
2023-05-15T03:09:54.989Z,19.80
2023-05-15T03:12:22.938Z,21.00
2023-05-15T03:14:50.862Z,20.00
2023-05-15T03:17:18.908Z,19.30
2023-05-15T03:19:46.810Z,20.20
2023-05-15T03:22:14.870Z,18.40
2023-05-15T03:24:43.089Z,18.10
2023-05-15T03:27:11.031Z,17.80
2023-05-15T03:29:38.936Z,17.20
2023-05-15T03:32:06.920Z,16.40
2023-05-15T03:34:34.896Z,15.50
2023-05-15T03:37:02.887Z,16.00
2023-05-15T03:39:30.815Z,16.00
2023-05-15T03:41:58.769Z,15.20
2023-05-15T03:44:26.698Z,14.70
2023-05-15T03:46:54.666Z,13.80
2023-05-15T03:49:22.627Z,12.80
2023-05-15T03:51:50.726Z,14.10
2023-05-15T03:54:19.256Z,13.10
2023-05-15T03:56:47.241Z,14.20
2023-05-15T03:59:15.323Z,15.80
2023-05-15T04:01:59.440Z,16.70
2023-05-15T04:04:31.522Z,16.30
2023-05-15T04:07:00.496Z,15.90
2023-05-15T04:09:28.453Z,16.80
2023-05-15T04:11:56.434Z,15.00
2023-05-15T04:14:24.410Z,16.30
2023-05-15T04:16:52.532Z,14.60
2023-05-15T04:19:20.842Z,14.10
2023-05-15T04:21:48.847Z,14.40
2023-05-15T04:24:16.755Z,15.30
2023-05-15T04:26:44.707Z,13.70
2023-05-15T04:29:12.654Z,14.40
2023-05-15T04:31:40.593Z,12.70
2023-05-15T04:34:08.524Z,12.50
2023-05-15T04:36:36.584Z,13.00
2023-05-15T04:39:04.509Z,14.00
2023-05-15T04:41:33.283Z,13.50
2023-05-15T04:44:01.219Z,14.30
2023-05-15T04:46:29.480Z,13.30
2023-05-15T04:48:57.485Z,13.80
2023-05-15T04:51:25.426Z,14.20
2023-05-15T04:53:53.267Z,13.70
2023-05-15T04:56:21.742Z,12.80
2023-05-15T04:58:49.756Z,11.80
2023-05-15T05:01:17.650Z,12.20
2023-05-15T05:03:45.636Z,11.30
2023-05-15T05:06:13.611Z,10.70
2023-05-15T05:08:41.541Z,10.60
2023-05-15T05:11:09.573Z,9.80
2023-05-15T05:13:37.410Z,11.00
2023-05-15T05:16:05.846Z,11.30
2023-05-15T05:18:33.916Z,11.00
2023-05-15T05:21:05.156Z,11.40
2023-05-15T05:23:33.097Z,11.00
2023-05-15T05:26:01.084Z,11.50
2023-05-15T05:28:29.002Z,12.40
2023-05-15T05:30:57.072Z,10.70
2023-05-15T05:33:25.091Z,12.50
2023-05-15T05:35:53.112Z,12.10
2023-05-15T05:38:21.095Z,11.70
2023-05-15T05:40:48.988Z,13.00
2023-05-15T05:43:16.920Z,11.80
2023-05-15T05:45:44.890Z,11.80
2023-05-15T05:48:13.545Z,11.80
2023-05-15T05:50:42.436Z,11.70
2023-05-15T05:53:10.720Z,12.50
2023-05-15T05:55:38.750Z,11.90
2023-05-15T05:58:14.709Z,11.90
2023-05-15T06:00:52.572Z,12.00
2023-05-15T06:03:21.335Z,11.50
2023-05-15T06:05:49.569Z,11.90
2023-05-15T06:08:17.645Z,12.20
2023-05-15T06:10:46.085Z,11.60
2023-05-15T06:13:15.222Z,10.50
2023-05-15T06:15:43.925Z,10.30
2023-05-15T06:18:11.970Z,10.30
2023-05-15T06:20:40.108Z,9.00
2023-05-15T06:23:08.140Z,9.40
2023-05-15T06:25:36.547Z,9.90
2023-05-15T06:28:04.811Z,10.50
2023-05-15T06:30:33.018Z,10.60
2023-05-15T06:33:01.090Z,10.00
2023-05-15T06:35:29.185Z,11.00
2023-05-15T06:37:58.546Z,8.70
2023-05-15T06:40:27.098Z,9.40
2023-05-15T06:42:55.506Z,9.70
2023-05-15T06:45:23.516Z,9.90
2023-05-15T06:47:51.528Z,9.40
2023-05-15T06:50:19.799Z,9.80
2023-05-15T06:52:47.969Z,9.70
2023-05-15T06:55:15.914Z,10.00
2023-05-15T06:57:43.900Z,10.70
2023-05-15T07:00:12.575Z,11.90
2023-05-15T07:02:40.526Z,11.00
2023-05-15T07:05:09.012Z,10.20
2023-05-15T07:07:37.092Z,10.00
2023-05-15T07:10:05.924Z,9.30
2023-05-15T07:12:34.298Z,8.80
2023-05-15T07:15:02.208Z,8.80
2023-05-15T07:17:32.178Z,10.10
2023-05-15T07:20:00.249Z,14.80
2023-05-15T07:22:29.119Z,12.20
2023-05-15T07:24:57.104Z,11.50
2023-05-15T07:27:25.013Z,12.90
2023-05-15T07:29:53.972Z,11.40
2023-05-15T07:32:21.869Z,10.50
2023-05-15T07:34:49.827Z,9.50
2023-05-15T07:37:17.748Z,10.50
2023-05-15T07:39:46.693Z,10.40
2023-05-15T07:42:14.731Z,9.90
2023-05-15T07:44:44.343Z,9.30
2023-05-15T07:47:13.435Z,8.80
2023-05-15T07:49:41.366Z,8.80
2023-05-15T07:52:09.237Z,8.70
2023-05-15T07:54:37.105Z,8.20
2023-05-15T07:57:05.587Z,7.90
2023-05-15T07:59:33.815Z,7.80
2023-05-15T08:02:02.040Z,8.30
2023-05-15T08:04:30.024Z,8.30
2023-05-15T08:06:58.140Z,8.40
2023-05-15T08:09:26.041Z,8.00
2023-05-15T08:11:57.487Z,7.50
2023-05-15T08:14:25.486Z,6.30
2023-05-15T08:16:53.484Z,5.60
2023-05-15T08:19:22.207Z,4.90
2023-05-15T08:21:51.248Z,4.70
2023-05-15T08:24:19.110Z,4.90
2023-05-15T08:26:47.043Z,4.50
2023-05-15T08:29:14.962Z,4.50
2023-05-15T08:31:42.985Z,4.90
2023-05-15T08:34:11.359Z,3.40
2023-05-15T08:36:39.665Z,3.40
2023-05-15T08:39:09.318Z,3.50
2023-05-15T08:42:19.250Z,4.00
2023-05-15T08:44:47.895Z,3.70
2023-05-15T08:47:16.138Z,4.80
2023-05-15T08:50:06.859Z,3.60
2023-05-15T08:52:35.011Z,3.80
2023-05-15T08:55:03.917Z,3.30
2023-05-15T08:57:33.438Z,3.60
2023-05-15T09:00:03.168Z,3.50
2023-05-15T09:02:31.438Z,3.70
2023-05-15T09:04:59.422Z,3.60
2023-05-15T09:07:27.482Z,4.30
2023-05-15T09:09:57.080Z,3.80
2023-05-15T09:12:26.252Z,4.70
2023-05-15T09:15:18.185Z,4.90
2023-05-15T09:17:46.280Z,4.20
2023-05-15T09:20:35.700Z,5.20
2023-05-15T09:23:06.180Z,5.60
2023-05-15T09:25:40.528Z,4.80
2023-05-15T09:28:10.884Z,4.70
2023-05-15T09:30:41.747Z,4.50
2023-05-15T09:33:10.045Z,4.20
2023-05-15T09:35:39.574Z,5.20
2023-05-15T09:38:12.746Z,6.30
2023-05-15T09:40:41.138Z,5.50
2023-05-15T09:43:12.218Z,5.00
2023-05-15T09:45:40.282Z,6.00
2023-05-15T09:48:08.681Z,6.60
2023-05-15T09:50:41.483Z,5.20
2023-05-15T09:53:12.951Z,4.80
2023-05-15T09:55:42.580Z,5.20
2023-05-15T09:58:16.389Z,4.00
2023-05-15T10:00:47.579Z,3.60
2023-05-15T10:03:22.497Z,3.80
2023-05-15T10:05:50.903Z,3.40
2023-05-15T10:08:27.515Z,4.10
2023-05-15T10:10:59.774Z,3.30
2023-05-15T10:13:30.915Z,4.30
2023-05-15T10:15:59.208Z,4.00
2023-05-15T10:18:30.429Z,3.00
2023-05-15T10:21:01.354Z,3.10
2023-05-15T10:23:31.814Z,3.20
2023-05-15T10:26:07.753Z,3.30
2023-05-15T10:28:36.576Z,3.30
2023-05-15T10:31:05.032Z,3.40
2023-05-15T10:33:33.970Z,2.70
2023-05-15T10:36:03.580Z,3.00
2023-05-15T10:38:33.065Z,4.10
2023-05-15T10:41:15.653Z,4.10
2023-05-15T10:43:44.725Z,3.60
2023-05-15T10:46:13.874Z,3.10
2023-05-15T10:48:42.555Z,3.80
2023-05-15T10:51:28.074Z,3.70
2023-05-15T10:53:56.961Z,2.90
2023-05-15T10:56:32.518Z,2.70
2023-05-15T10:59:08.732Z,2.80
2023-05-15T11:01:39.086Z,2.40
2023-05-15T11:04:11.454Z,2.10
2023-05-15T11:06:50.562Z,2.30
2023-05-15T11:09:21.587Z,2.40
2023-05-15T11:11:52.869Z,2.10
2023-05-15T11:14:24.572Z,1.90
2023-05-15T11:16:52.555Z,1.70
2023-05-15T11:19:29.553Z,1.90
2023-05-15T11:22:03.836Z,2.20
2023-05-15T11:24:46.814Z,3.50
2023-05-15T11:27:20.545Z,5.00
2023-05-15T11:30:26.648Z,4.00
2023-05-15T11:32:58.524Z,4.30
2023-05-15T11:35:32.584Z,4.20
2023-05-15T11:38:24.964Z,4.00
2023-05-15T11:40:58.594Z,2.00
2023-05-15T11:43:28.475Z,2.10
2023-05-15T11:46:17.086Z,2.10
2023-05-15T11:48:48.002Z,2.40
2023-05-15T11:51:25.083Z,3.20
2023-05-15T11:53:56.747Z,4.00
2023-05-15T11:56:28.376Z,3.60
2023-05-15T11:59:04.014Z,2.10
2023-05-15T12:01:43.006Z,2.40
2023-05-15T12:04:18.640Z,2.00
2023-05-15T12:06:49.809Z,2.80
2023-05-15T12:09:19.551Z,2.70
2023-05-15T12:11:50.761Z,2.70
2023-05-15T12:14:26.807Z,2.40
2023-05-15T12:16:57.867Z,2.80
2023-05-15T12:19:29.179Z,3.50
2023-05-15T12:21:57.192Z,3.00
2023-05-15T12:24:26.629Z,2.90
2023-05-15T12:26:57.302Z,2.80
2023-05-15T12:29:26.895Z,2.50
2023-05-15T12:31:55.258Z,3.10
2023-05-15T12:34:24.749Z,3.10
2023-05-15T12:36:52.789Z,3.10
2023-05-15T12:39:20.805Z,2.80
2023-05-15T12:41:50.064Z,2.90
2023-05-15T12:44:18.641Z,2.70
2023-05-15T12:46:47.820Z,2.40
2023-05-15T12:49:21.768Z,3.30
2023-05-15T12:51:50.133Z,3.00
2023-05-15T12:54:19.928Z,3.20
2023-05-15T12:56:48.590Z,4.50
2023-05-15T12:59:16.583Z,8.10
2023-05-15T13:01:45.110Z,5.00
2023-05-15T13:04:13.143Z,4.70
2023-05-15T13:06:46.932Z,4.20
2023-05-15T13:09:22.720Z,5.10
2023-05-15T13:11:50.927Z,6.10
2023-05-15T13:14:19.549Z,8.00
2023-05-15T13:16:47.556Z,6.10
2023-05-15T13:19:16.112Z,4.60
2023-05-15T13:21:45.632Z,6.70
2023-05-15T13:24:13.642Z,5.50
2023-05-15T13:26:41.991Z,5.70
2023-05-15T13:29:10.145Z,5.50
2023-05-15T13:31:38.176Z,4.60
2023-05-15T13:34:06.540Z,4.30
2023-05-15T13:36:34.504Z,5.30
2023-05-15T13:39:03.747Z,4.20
2023-05-15T13:41:31.709Z,3.60
2023-05-15T13:44:00.256Z,5.10
2023-05-15T13:46:28.357Z,5.20
2023-05-15T13:48:56.288Z,4.50
2023-05-15T13:51:24.445Z,4.10
2023-05-15T13:53:52.408Z,3.70
2023-05-15T13:56:20.831Z,5.20
2023-05-15T13:58:48.735Z,5.40
2023-05-15T14:01:16.903Z,4.60
2023-05-15T14:03:45.573Z,5.40
2023-05-15T14:06:13.592Z,5.80
2023-05-15T14:08:41.500Z,4.80
2023-05-15T14:11:09.469Z,4.20
2023-05-15T14:13:37.437Z,4.50
2023-05-15T14:16:05.837Z,3.60
2023-05-15T14:18:34.000Z,3.60
2023-05-15T14:21:02.308Z,3.20
2023-05-15T14:23:30.327Z,3.60
2023-05-15T14:25:58.212Z,3.30
2023-05-15T14:28:26.135Z,3.80
2023-05-15T14:30:54.082Z,3.40
2023-05-15T14:33:22.050Z,3.60
2023-05-15T14:35:50.059Z,3.90
2023-05-15T14:38:18.001Z,3.60
2023-05-15T14:40:46.020Z,3.60
2023-05-15T14:43:13.995Z,4.10
2023-05-15T14:45:41.868Z,3.90
2023-05-15T14:48:11.719Z,4.70
2023-05-15T14:50:39.756Z,4.10
2023-05-15T14:53:07.740Z,4.30
2023-05-15T14:55:35.647Z,4.20
2023-05-15T14:58:03.564Z,3.90
2023-05-15T15:00:32.302Z,4.90
2023-05-15T15:03:02.672Z,6.30
2023-05-15T15:05:30.724Z,5.70
2023-05-15T15:08:01.670Z,7.20
2023-05-15T15:10:30.365Z,8.40
2023-05-15T15:12:58.842Z,8.10
2023-05-15T15:15:27.290Z,7.20
2023-05-15T15:17:57.366Z,6.00
2023-05-15T15:20:26.997Z,6.60
2023-05-15T15:22:56.232Z,6.60
2023-05-15T15:25:24.408Z,6.30
2023-05-15T15:27:52.614Z,5.30
2023-05-15T15:30:20.706Z,6.10
2023-05-15T15:32:48.825Z,5.80
2023-05-15T15:35:16.739Z,6.00
2023-05-15T15:37:46.199Z,5.70
2023-05-15T15:40:15.103Z,6.00
2023-05-15T15:42:43.029Z,5.30
2023-05-15T15:45:11.022Z,5.00
2023-05-15T15:47:39.054Z,4.90
2023-05-15T15:50:07.637Z,5.00
2023-05-15T15:52:35.625Z,4.60
2023-05-15T15:55:03.730Z,5.10
2023-05-15T15:57:32.755Z,5.00
2023-05-15T16:00:01.563Z,4.80
2023-05-15T16:02:29.593Z,5.50
2023-05-15T16:04:57.549Z,6.10
2023-05-15T16:07:25.458Z,5.00
2023-05-15T16:10:00.335Z,4.80
2023-05-15T16:12:39.300Z,4.60
2023-05-15T16:15:21.653Z,4.00
2023-05-15T16:17:53.514Z,3.90
2023-05-15T16:20:23.754Z,3.90
2023-05-15T16:22:51.937Z,3.60
2023-05-15T16:25:20.003Z,3.80
2023-05-15T16:27:47.971Z,3.30
2023-05-15T16:30:16.009Z,3.70
2023-05-15T16:32:44.035Z,3.80
2023-05-15T16:35:12.107Z,3.60
2023-05-15T16:37:40.095Z,4.60
2023-05-15T16:40:08.676Z,4.90
2023-05-15T16:42:38.069Z,4.20
2023-05-15T16:45:06.876Z,4.50
2023-05-15T16:47:37.682Z,5.00
2023-05-15T16:50:09.250Z,4.50
2023-05-15T16:52:39.049Z,4.50
2023-05-15T16:55:07.547Z,4.50
2023-05-15T16:57:35.624Z,4.50
2023-05-15T17:00:04.379Z,4.40
2023-05-15T17:02:32.447Z,4.10
2023-05-15T17:05:00.675Z,4.80
2023-05-15T17:07:28.706Z,4.50
2023-05-15T17:09:56.668Z,4.30
2023-05-15T17:12:24.652Z,4.70
2023-05-15T17:14:52.685Z,4.80
2023-05-15T17:17:20.892Z,4.20
2023-05-15T17:19:49.259Z,3.80
2023-05-15T17:22:17.155Z,4.50
2023-05-15T17:24:51.319Z,3.90
2023-05-15T17:27:20.557Z,5.60
2023-05-15T17:29:48.789Z,4.90
2023-05-15T17:32:17.524Z,3.70
2023-05-15T17:34:46.391Z,4.60
2023-05-15T17:37:14.908Z,4.70
2023-05-15T17:39:43.145Z,4.80
2023-05-15T17:42:11.094Z,4.10
2023-05-15T17:44:39.283Z,4.70
2023-05-15T17:47:08.610Z,4.10
2023-05-15T17:49:37.578Z,4.60
2023-05-15T17:52:06.637Z,4.50
2023-05-15T17:54:34.733Z,5.80
2023-05-15T17:57:03.150Z,4.80
2023-05-15T17:59:31.284Z,5.20
2023-05-15T18:01:59.371Z,5.00
2023-05-15T18:04:27.580Z,5.90
2023-05-15T18:06:55.673Z,5.10
2023-05-15T18:09:24.865Z,5.00
2023-05-15T18:11:52.961Z,5.40
2023-05-15T18:14:20.926Z,5.30
2023-05-15T18:16:48.938Z,5.50
2023-05-15T18:19:17.082Z,5.60
2023-05-15T18:21:45.243Z,5.40
2023-05-15T18:24:13.312Z,6.70
2023-05-15T18:26:41.379Z,6.90
2023-05-15T18:29:09.316Z,6.10
2023-05-15T18:31:37.374Z,6.20
2023-05-15T18:34:05.293Z,5.80
2023-05-15T18:36:33.454Z,6.10
2023-05-15T18:39:02.516Z,5.80
2023-05-15T18:41:30.734Z,6.30
2023-05-15T18:43:58.708Z,6.20
2023-05-15T18:46:28.409Z,6.50
2023-05-15T18:48:56.746Z,6.80
2023-05-15T18:51:24.709Z,7.00
2023-05-15T18:53:52.737Z,7.90
2023-05-15T18:56:21.659Z,11.90
2023-05-15T18:58:49.834Z,12.40
2023-05-15T19:01:17.908Z,19.60
2023-05-15T19:03:46.075Z,14.40
2023-05-15T19:06:19.700Z,11.50
2023-05-15T19:11:16.991Z,9.70
2023-05-15T19:13:45.092Z,8.70
2023-05-15T19:16:13.153Z,8.40
2023-05-15T19:18:41.264Z,8.00
2023-05-15T19:21:09.225Z,9.30
2023-05-15T19:23:37.308Z,8.90
2023-05-15T19:26:05.400Z,10.50
2023-05-15T19:28:33.623Z,10.20
2023-05-15T19:31:01.627Z,9.30
2023-05-15T19:33:29.593Z,10.00
2023-05-15T19:35:57.552Z,9.60
2023-05-15T19:38:25.743Z,10.50
2023-05-15T19:40:53.783Z,11.00
2023-05-15T19:43:22.031Z,12.90
2023-05-15T19:45:50.020Z,13.00
2023-05-15T19:48:17.983Z,9.30
2023-05-15T19:50:46.270Z,9.40
2023-05-15T19:53:14.275Z,8.80
2023-05-15T19:55:42.201Z,8.00
2023-05-15T19:58:10.398Z,7.80
2023-05-15T20:00:38.512Z,7.20
2023-05-15T20:03:06.552Z,7.90
2023-05-15T20:05:34.515Z,7.20
2023-05-15T20:08:02.868Z,7.10
2023-05-15T20:10:30.968Z,7.60
2023-05-15T20:12:59.399Z,7.30
2023-05-15T20:15:29.443Z,7.60
2023-05-15T20:17:58.305Z,9.10
2023-05-15T20:20:27.106Z,8.50
2023-05-15T20:22:55.255Z,9.90
2023-05-15T20:25:24.353Z,8.80
2023-05-15T20:27:56.426Z,10.20
2023-05-15T20:30:24.809Z,8.10
2023-05-15T20:32:53.007Z,8.60
2023-05-15T20:35:24.009Z,8.30
2023-05-15T20:37:53.110Z,8.60
2023-05-15T20:40:22.993Z,9.00
2023-05-15T20:42:51.976Z,8.40
2023-05-15T20:45:20.252Z,8.70
2023-05-15T20:47:48.943Z,9.10
2023-05-15T20:50:18.003Z,8.90
2023-05-15T20:52:46.160Z,8.90
2023-05-15T20:55:16.335Z,8.30
2023-05-15T20:57:44.669Z,7.70
2023-05-15T21:00:15.406Z,8.40
2023-05-15T21:02:45.482Z,8.00
2023-05-15T21:05:14.001Z,7.90
2023-05-15T21:07:42.116Z,8.10
2023-05-15T21:10:10.854Z,7.60
2023-05-15T21:12:39.861Z,7.80
2023-05-15T21:15:08.459Z,8.30
2023-05-15T21:17:36.519Z,8.30
2023-05-15T21:20:05.004Z,8.70
2023-05-15T21:22:33.257Z,8.90
2023-05-15T21:25:01.321Z,14.50
2023-05-15T21:27:29.412Z,10.70
2023-05-15T21:29:57.464Z,9.90
2023-05-15T21:32:25.613Z,10.30
2023-05-15T21:34:53.499Z,10.40
2023-05-15T21:37:21.562Z,10.60
2023-05-15T21:39:49.429Z,10.90
2023-05-15T21:42:17.293Z,10.30
2023-05-15T21:44:49.289Z,10.70
2023-05-15T21:47:17.232Z,10.20
2023-05-15T21:49:45.296Z,10.20
2023-05-15T21:52:13.189Z,10.00
2023-05-15T21:54:41.115Z,10.00
2023-05-15T21:57:09.813Z,10.00
2023-05-15T21:59:37.797Z,12.00
2023-05-15T22:02:07.441Z,12.10
2023-05-15T22:04:35.686Z,12.90
2023-05-15T22:07:03.740Z,12.20
2023-05-15T22:09:31.750Z,13.90
2023-05-15T22:11:59.785Z,13.00
2023-05-15T22:14:27.721Z,12.70
2023-05-15T22:16:55.909Z,13.40
2023-05-15T22:19:32.702Z,12.40
2023-05-15T22:22:03.558Z,12.50
2023-05-15T22:24:31.504Z,12.50
2023-05-15T22:27:00.706Z,13.20
2023-05-15T22:29:28.597Z,12.60
2023-05-15T22:31:56.548Z,12.50
2023-05-15T22:34:28.760Z,13.10
2023-05-15T22:36:56.787Z,13.10
2023-05-15T22:39:24.640Z,13.50
2023-05-15T22:41:52.614Z,13.60
2023-05-15T22:44:20.447Z,13.40
2023-05-15T22:46:48.334Z,13.90
2023-05-15T22:49:19.309Z,14.10
2023-05-15T22:51:47.427Z,14.10
2023-05-15T22:54:22.261Z,13.90
2023-05-15T22:56:52.360Z,14.60
2023-05-15T22:59:21.002Z,14.20
2023-05-15T23:01:49.830Z,14.70
2023-05-15T23:04:18.246Z,14.90
2023-05-15T23:06:46.639Z,14.40
2023-05-15T23:09:14.609Z,14.00
2023-05-15T23:11:42.538Z,14.60
2023-05-15T23:14:10.384Z,15.10
2023-05-15T23:16:38.415Z,15.50
2023-05-15T23:19:06.460Z,15.00
2023-05-15T23:21:34.468Z,15.60
2023-05-15T23:24:02.477Z,15.70
2023-05-15T23:26:30.388Z,14.90
2023-05-15T23:28:58.324Z,14.80
2023-05-15T23:31:26.340Z,14.80
2023-05-15T23:33:54.391Z,15.00
2023-05-15T23:36:22.552Z,14.30
2023-05-15T23:38:50.785Z,14.30
2023-05-15T23:41:18.801Z,13.60
2023-05-15T23:43:46.814Z,13.60
2023-05-15T23:46:14.993Z,13.70
2023-05-15T23:48:43.139Z,13.10
2023-05-15T23:51:11.318Z,13.60
2023-05-15T23:53:39.221Z,13.70
2023-05-15T23:56:08.385Z,13.00
2023-05-15T23:58:36.330Z,13.10
